Dades meteomassalio
Diari Summary for Gener 3, 2018 Units:  Metric    English   Both
« Previous Day
Next Day »
Diari Semanal Mensual Anual Personalitzat
  Maxima: Minima: Mijana:
Temperatura: -17.8 °C -12.8 °C -9.9 °C
Rosada: -17.8 °C -15.7 °C -13.3 °C
Humitat: Humidity % 54 % 66 %
Velocitat del vent: 0 km/h 0 km/h 39.4 km/h
Racha vent: 0 km/h - -
Vent:- - WNW
Pressio: 0 hPa 34774.2 hPa -
Pluja: 0 mm    
Historical Graphs
 
 
Tabular Data for Gener 3, 2018
Time Temperature Dew Point Pressure Wind Wind Speed Wind Gust Humidity Rainfall Rate (Hourly) solar Conditions
-17.8 °C -17.8 °C 0 hPa Calm     Humidity % 0 mm SolarRadiationWatts/m^2 W/m2 Conditions
00:04 -11 °C -13.8 °C 34889.3 hPa West 6 km/h 6 km/h 71 % 0 mm 0.0 W/m2 CLR
00:09 -11.3 °C -13.9 °C 34875.8 hPa WNW 32.8 km/h 32.8 km/h 73 % 0 mm 0.0 W/m2 CLR
00:14 -11.3 °C -13.9 °C 34875.8 hPa West 31.1 km/h 31.1 km/h 73 % 0 mm 0.0 W/m2 CLR
00:20 -11.3 °C -13.9 °C 34875.8 hPa WNW 29.8 km/h 29.8 km/h 73 % 0 mm 0.0 W/m2 CLR
00:23 -11.3 °C -14 °C 34875.8 hPa WNW 35.7 km/h 35.7 km/h 72 % 0 mm 0.0 W/m2 CLR
00:28 -11.3 °C -14 °C 34875.8 hPa WNW 29.8 km/h 29.8 km/h 72 % 0 mm 0.0 W/m2 CLR
00:30 -11.3 °C -14 °C 34875.8 hPa West 47.6 km/h 47.6 km/h 72 % 0 mm 0.0 W/m2 CLR
00:32 -11.3 °C -14.1 °C 34875.8 hPa WNW 35.7 km/h 35.7 km/h 71 % 0 mm 0.0 W/m2 CLR
00:36 -11 °C -13.8 °C 34875.8 hPa NW 44.7 km/h 44.7 km/h 71 % 0 mm 0.0 W/m2 CLR
00:41 -11 °C -13.8 °C 34875.8 hPa WNW 36.2 km/h 36.7 km/h 71 % 0 mm 0.0 W/m2 CLR
00:50 -10.7 °C -13.7 °C 34875.8 hPa WNW 35.7 km/h 35.7 km/h 70 % 0 mm 0.0 W/m2 CLR
00:55 -10.7 °C -13.8 °C 34875.8 hPa NW 44.7 km/h 44.7 km/h 69 % 0 mm 0.0 W/m2 CLR
01:00 -11 °C -14.1 °C 34865.6 hPa WNW 50.7 km/h 50.7 km/h 69 % 0 mm 0.0 W/m2 CLR
01:01 -11 °C -14.1 °C 34865.6 hPa WNW 50.7 km/h 50.7 km/h 69 % 0 mm 0.0 W/m2 CLR
01:06 -11 °C -14.1 °C 34865.6 hPa NW 50.7 km/h 50.7 km/h 69 % 0 mm 0.0 W/m2 CLR
01:07 -11 °C -14.2 °C 34875.8 hPa WNW 44.1 km/h 44.1 km/h 68 % 0 mm 0.0 W/m2 CLR
01:12 -10.7 °C -13.9 °C 34875.8 hPa NW 44.7 km/h 44.7 km/h 68 % 0 mm 0.0 W/m2 CLR
01:17 -10.7 °C -13.9 °C 34865.6 hPa NW 41.7 km/h 41.7 km/h 68 % 0 mm 0.0 W/m2 CLR
01:18 -10.7 °C -13.9 °C 34865.6 hPa WNW 47.6 km/h 47.6 km/h 68 % 0 mm 0.0 W/m2 CLR
01:19 -10.7 °C -13.9 °C 34875.8 hPa NW 47.6 km/h 47.6 km/h 68 % 0 mm 0.0 W/m2 CLR
01:24 -10.7 °C -13.9 °C 34865.6 hPa WNW 44.7 km/h 44.7 km/h 68 % 0 mm 0.0 W/m2 CLR
01:28 -10.7 °C -13.9 °C 34875.8 hPa NW 44.7 km/h 44.7 km/h 68 % 0 mm 0.0 W/m2 CLR
01:30 -10.4 °C -13.6 °C 34875.8 hPa WNW 44.7 km/h 44.7 km/h 68 % 0 mm 0.0 W/m2 CLR
01:35 -10.4 °C -13.6 °C 34865.6 hPa WNW 44.7 km/h 44.7 km/h 68 % 0 mm 0.0 W/m2 CLR
01:37 -10.4 °C -13.6 °C 34865.6 hPa NW 38.8 km/h 38.8 km/h 68 % 0 mm 0.0 W/m2 CLR
01:40 -10.7 °C -13.9 °C 34865.6 hPa West 38.8 km/h 38.8 km/h 68 % 0 mm 0.0 W/m2 CLR
01:45 -10.7 °C -13.9 °C 34865.6 hPa WNW 38.8 km/h 38.8 km/h 68 % 0 mm 0.0 W/m2 CLR
01:48 -10.7 °C -13.8 °C 34865.6 hPa WNW 38.8 km/h 38.8 km/h 69 % 0 mm 0.0 W/m2 CLR
01:53 -11 °C -14.2 °C 34865.6 hPa WNW 35.7 km/h 35.7 km/h 68 % 0 mm 0.0 W/m2 CLR
01:55 -11 °C -14.2 °C 34865.6 hPa WNW 32.8 km/h 32.8 km/h 68 % 0 mm 0.0 W/m2 CLR
02:00 -11 °C -14.2 °C 34865.6 hPa WNW 26.9 km/h 26.9 km/h 68 % 0 mm 0.0 W/m2 CLR
02:01 -11 °C -14.2 °C 34865.6 hPa WNW 31.1 km/h 31.1 km/h 68 % 0 mm 0.0 W/m2 CLR
02:06 -11 °C -14.1 °C 34865.6 hPa WNW 29.8 km/h 29.8 km/h 69 % 0 mm 0.0 W/m2 CLR
02:09 -11 °C -14.1 °C 34865.6 hPa WNW 35.7 km/h 35.7 km/h 69 % 0 mm 0.0 W/m2 CLR
02:12 -11 °C -14.1 °C 34865.6 hPa WNW 32.8 km/h 32.8 km/h 69 % 0 mm 0.0 W/m2 CLR
02:14 -11 °C -14.1 °C 34865.6 hPa WNW 35.7 km/h 35.7 km/h 69 % 0 mm 0.0 W/m2 CLR
02:19 -11 °C -14.1 °C 34865.6 hPa NW 33.6 km/h 33.6 km/h 69 % 0 mm 0.0 W/m2 CLR
02:20 -11.3 °C -14.2 °C 34865.6 hPa NW 35.7 km/h 35.7 km/h 70 % 0 mm 0.0 W/m2 CLR
02:21 -11.3 °C -14.2 °C 34865.6 hPa NW 38.8 km/h 38.8 km/h 70 % 0 mm 0.0 W/m2 CLR
02:27 -11.3 °C -14.2 °C 34865.6 hPa NW 44.7 km/h 44.7 km/h 70 % 0 mm 0.0 W/m2 CLR
02:28 -11.3 °C -14.2 °C 34865.6 hPa WNW 47.6 km/h 47.6 km/h 70 % 0 mm 0.0 W/m2 CLR
02:33 -11 °C -13.9 °C 34865.6 hPa WNW 35.7 km/h 35.7 km/h 70 % 0 mm 0.0 W/m2 CLR
02:38 -10.7 °C -13.7 °C 34865.6 hPa WNW 41.4 km/h 41.4 km/h 70 % 0 mm 0.0 W/m2 CLR
02:39 -10.7 °C -13.7 °C 34865.6 hPa NW 35.7 km/h 35.7 km/h 70 % 0 mm 0.0 W/m2 CLR
02:44 -10.7 °C -13.7 °C 34852.1 hPa WNW 35.7 km/h 35.7 km/h 70 % 0 mm 0.0 W/m2 CLR
02:48 -10.7 °C -13.7 °C 34865.6 hPa WNW 41.7 km/h 41.7 km/h 70 % 0 mm 0.0 W/m2 CLR
02:50 -10.7 °C -13.7 °C 34865.6 hPa WNW 38.8 km/h 38.8 km/h 70 % 0 mm 0.0 W/m2 CLR
02:54 -11 °C -13.9 °C 34865.6 hPa WNW 44.7 km/h 44.7 km/h 70 % 0 mm 0.0 W/m2 CLR
02:55 -11 °C -13.9 °C 34865.6 hPa NW 50.7 km/h 50.7 km/h 70 % 0 mm 0.0 W/m2 CLR
03:00 -10.7 °C -13.7 °C 34865.6 hPa West 41.7 km/h 41.7 km/h 70 % 0 mm 0.0 W/m2 CLR
03:03 -10.7 °C -13.7 °C 34865.6 hPa West 47.6 km/h 47.6 km/h 70 % 0 mm 0.0 W/m2 CLR
03:13 -10.7 °C -13.7 °C 34865.6 hPa NW 36.2 km/h 36.2 km/h 70 % 0 mm 0.0 W/m2 CLR
03:15 -10.7 °C -13.7 °C 34865.6 hPa NW 38.8 km/h 38.8 km/h 70 % 0 mm 0.0 W/m2 CLR
03:16 -10.7 °C -13.7 °C 34865.6 hPa West 41.7 km/h 41.7 km/h 70 % 0 mm 0.0 W/m2 CLR
03:20 -10.7 °C -13.7 °C 34865.6 hPa WNW 41.7 km/h 41.7 km/h 70 % 0 mm 0.0 W/m2 CLR
03:23 -10.7 °C -13.7 °C 34865.6 hPa NW 29.8 km/h 29.8 km/h 70 % 0 mm 0.0 W/m2 CLR
03:25 -10.7 °C -13.7 °C 34865.6 hPa NW 32.8 km/h 32.8 km/h 70 % 0 mm 0.0 W/m2 CLR
03:30 -10.7 °C -13.7 °C 34865.6 hPa WNW 32.8 km/h 32.8 km/h 70 % 0 mm 0.0 W/m2 CLR
03:31 -10.7 °C -13.5 °C 34865.6 hPa WNW 32.8 km/h 32.8 km/h 71 % 0 mm 0.0 W/m2 CLR
03:37 -11 °C -13.8 °C 34865.6 hPa NW 29.8 km/h 29.8 km/h 71 % 0 mm 0.0 W/m2 CLR
03:42 -11.3 °C -14.1 °C 34865.6 hPa WNW 23.8 km/h 23.8 km/h 71 % 0 mm 0.0 W/m2 CLR
03:44 -11.3 °C -14.1 °C 34865.6 hPa NW 26.9 km/h 26.9 km/h 71 % 0 mm 0.0 W/m2 CLR
03:48 -11.3 °C -14 °C 34865.6 hPa WNW 26.9 km/h 26.9 km/h 72 % 0 mm 0.0 W/m2 CLR
03:53 -11.6 °C -14.3 °C 34865.6 hPa WNW 20.9 km/h 20.9 km/h 72 % 0 mm 0.0 W/m2 CLR
03:54 -11.6 °C -14.3 °C 34865.6 hPa WNW 20.9 km/h 20.9 km/h 72 % 0 mm 0.0 W/m2 CLR
03:59 -11.6 °C -14.3 °C 34865.6 hPa Calm     72 % 0 mm 0.0 W/m2 CLR
04:01 -11.6 °C -14.3 °C 34865.6 hPa WNW 15 km/h 15 km/h 72 % 0 mm 0.0 W/m2 CLR
04:02 -11.6 °C -14.2 °C 34865.6 hPa Calm     73 % 0 mm 0.0 W/m2 CLR
04:08 -11.9 °C -14.5 °C 34865.6 hPa West 3.1 km/h 3.1 km/h 73 % 0 mm 0.0 W/m2 CLR
04:13 -12.2 °C -14.7 °C 34875.8 hPa Calm     74 % 0 mm 0.0 W/m2 CLR
04:14 -12.6 °C -14.9 °C 34875.8 hPa WNW 6 km/h 6 km/h 74 % 0 mm 0.0 W/m2 CLR
04:19 -12.8 °C -15.3 °C 34875.8 hPa West 9 km/h 9 km/h 74 % 0 mm 0.0 W/m2 CLR
04:24 -12.8 °C -15.2 °C 34875.8 hPa WNW 9 km/h 9 km/h 75 % 0 mm 0.0 W/m2 CLR
04:30 -12.8 °C -15.2 °C 34865.6 hPa West 15 km/h 15 km/h 75 % 0 mm 0.0 W/m2 CLR
04:35 -12.8 °C -15.1 °C 34865.6 hPa WNW 17.9 km/h 17.9 km/h 76 % 0 mm 0.0 W/m2 CLR
04:36 -12.6 °C -14.8 °C 34865.6 hPa West 12.9 km/h 12.9 km/h 76 % 0 mm 0.0 W/m2 CLR
04:41 -12.2 °C -14.5 °C 34865.6 hPa WNW 23.8 km/h 23.8 km/h 76 % 0 mm 0.0 W/m2 CLR
04:46 -12.2 °C -14.3 °C 34852.1 hPa WNW 26.9 km/h 26.9 km/h 77 % 0 mm 0.0 W/m2 CLR
04:47 -12.6 °C -14.7 °C 34852.1 hPa WNW 26.9 km/h 26.9 km/h 77 % 0 mm 0.0 W/m2 CLR
04:48 -12.6 °C -14.7 °C 34852.1 hPa WNW 29.8 km/h 29.8 km/h 77 % 0 mm 0.0 W/m2 CLR
04:53 -12.6 °C -14.8 °C 34852.1 hPa WNW 29.8 km/h 29.8 km/h 76 % 0 mm 0.0 W/m2 CLR
04:57 -12.6 °C -14.8 °C 34852.1 hPa NW 29.8 km/h 29.8 km/h 76 % 0 mm 0.0 W/m2 CLR
04:59 -12.6 °C -14.8 °C 34852.1 hPa WNW 23.8 km/h 23.8 km/h 76 % 0 mm 0.0 W/m2 CLR
05:04 -12.6 °C -14.9 °C 34852.1 hPa NW 26.9 km/h 26.9 km/h 75 % 0 mm 0.0 W/m2 CLR
05:09 -12.6 °C -14.9 °C 34852.1 hPa WNW 23.8 km/h 23.8 km/h 75 % 0 mm 0.0 W/m2 CLR
05:10 -12.6 °C -14.9 °C 34852.1 hPa West 23.8 km/h 23.8 km/h 75 % 0 mm 0.0 W/m2 CLR
05:12 -12.6 °C -14.9 °C 34852.1 hPa WNW 32.8 km/h 32.8 km/h 75 % 0 mm 0.0 W/m2 CLR
05:16 -12.6 °C -14.9 °C 34852.1 hPa West 20.9 km/h 20.9 km/h 75 % 0 mm 0.0 W/m2 CLR
05:21 -12.6 °C -14.9 °C 34852.1 hPa West 29.8 km/h 29.8 km/h 75 % 0 mm 0.0 W/m2 CLR
05:22 -12.6 °C -14.9 °C 34852.1 hPa WNW 26.9 km/h 26.9 km/h 75 % 0 mm 0.0 W/m2 CLR
05:27 -12.6 °C -14.9 °C 34865.6 hPa NW 17.9 km/h 17.9 km/h 75 % 0 mm 0.0 W/m2 CLR
05:29 -12.8 °C -15.2 °C 34865.6 hPa NNW 17.9 km/h   75 % 0 mm 0.0 W/m2 CLR
05:30 -12.8 °C -15.2 °C 34865.6 hPa Calm     75 % 0 mm 0.0 W/m2 CLR
05:35 -12.8 °C -15.2 °C 34852.1 hPa Calm     75 % 0 mm 0.0 W/m2 CLR
05:36 -12.8 °C -15.2 °C 34852.1 hPa Calm     75 % 0 mm 0.0 W/m2 CLR
05:40 -12.8 °C -15.1 °C 34852.1 hPa WNW 18.2 km/h 18.2 km/h 76 % 0 mm 0.0 W/m2 CLR
05:41 -12.8 °C -15.1 °C 34852.1 hPa WNW 26.9 km/h 26.9 km/h 76 % 0 mm 0.0 W/m2 CLR
05:46 -12.8 °C -15.1 °C 34852.1 hPa WNW 29.8 km/h 29.8 km/h 76 % 0 mm 0.0 W/m2 CLR
05:47 -12.8 °C -15.1 °C 34852.1 hPa WNW 29.8 km/h 29.8 km/h 76 % 0 mm 0.0 W/m2 CLR
05:52 -12.8 °C -15.2 °C 34852.1 hPa NW 29.8 km/h 29.8 km/h 75 % 0 mm 0.0 W/m2 CLR
05:57 -12.6 °C -14.9 °C 34841.9 hPa NW 31.1 km/h 31.1 km/h 75 % 0 mm 0.0 W/m2 CLR
06:01 -12.2 °C -14.6 °C 34852.1 hPa NW 38.8 km/h 38.8 km/h 75 % 0 mm 0.0 W/m2 CLR
06:03 -11.9 °C -14.4 °C 34852.1 hPa NW 38.8 km/h 38.8 km/h 74 % 0 mm 0.0 W/m2 CLR
06:08 -11.6 °C -14 °C 34852.1 hPa NW 38.8 km/h 38.8 km/h 75 % 0 mm 0.0 W/m2 CLR
06:13 -11 °C -13.4 °C 34865.6 hPa NNW 38.8 km/h 38.8 km/h 75 % 0 mm 0.0 W/m2 CLR
06:15 -11 °C -13.5 °C 34865.6 hPa NNW 36.2 km/h 36.2 km/h 74 % 0 mm 0.0 W/m2 CLR
06:18 -11 °C -13.5 °C 34865.6 hPa NNW 29.8 km/h 29.8 km/h 74 % 0 mm 0.0 W/m2 CLR
06:21 -11 °C -13.5 °C 34865.6 hPa NW 26.9 km/h 26.9 km/h 74 % 0 mm 0.0 W/m2 CLR
06:23 -11 °C -13.5 °C 34865.6 hPa NW 29.8 km/h 29.8 km/h 74 % 0 mm 0.0 W/m2 CLR
06:27 -11 °C -13.4 °C 34865.6 hPa NW 29.8 km/h 29.8 km/h 75 % 0 mm 0.0 W/m2 CLR
06:32 -11 °C -13.5 °C 34865.6 hPa WNW 29.8 km/h 29.8 km/h 74 % 0 mm 0.0 W/m2 CLR
06:34 -11 °C -13.5 °C 34865.6 hPa NW 29.8 km/h 29.8 km/h 74 % 0 mm 0.0 W/m2 CLR
06:39 -11 °C -13.6 °C 34865.6 hPa NW 26.9 km/h 26.9 km/h 73 % 0 mm 0.0 W/m2 CLR
06:41 -11.3 °C -14 °C 34865.6 hPa NW 29.8 km/h 29.8 km/h 72 % 0 mm 0.0 W/m2 CLR
06:44 -11.3 °C -14 °C 34865.6 hPa NW 29.8 km/h 29.8 km/h 72 % 0 mm 0.0 W/m2 CLR
06:50 -11.6 °C -14.3 °C 34865.6 hPa NW 29.8 km/h 29.8 km/h 72 % 0 mm 0.0 W/m2 CLR
06:51 -11.6 °C -14.3 °C 34865.6 hPa NW 32.8 km/h 32.8 km/h 72 % 0 mm 0.0 W/m2 CLR
06:56 -11.6 °C -14.3 °C 34865.6 hPa NW 35.7 km/h 35.7 km/h 72 % 0 mm 0.0 W/m2 CLR
06:57 -11.6 °C -14.3 °C 34875.8 hPa NW 32.8 km/h 32.8 km/h 72 % 0 mm 0.0 W/m2 CLR
07:06 -11.3 °C -14 °C 34865.6 hPa NW 31.1 km/h 31.1 km/h 72 % 0 mm 0.0 W/m2 CLR
07:11 -11 °C -13.7 °C 34865.6 hPa WNW 29.8 km/h 29.8 km/h 72 % 0 mm 0.0 W/m2 CLR
07:16 -11 °C -13.7 °C 34865.6 hPa NW 29.8 km/h 29.8 km/h 72 % 0 mm 0.0 W/m2 CLR
07:21 -11 °C -13.7 °C 34865.6 hPa NW 41.7 km/h 41.7 km/h 72 % 0 mm 0.0 W/m2 CLR
07:23 -11 °C -13.7 °C 34875.8 hPa NW 32.8 km/h 32.8 km/h 72 % 0 mm 0.0 W/m2 CLR
07:24 -11 °C -13.7 °C 34875.8 hPa NW 35.7 km/h 35.7 km/h 72 % 0 mm 0.0 W/m2 CLR
07:29 -11 °C -13.7 °C 34875.8 hPa WNW 26.9 km/h 26.9 km/h 72 % 0 mm 0.0 W/m2 CLR
07:30 -11.3 °C -14 °C 34865.6 hPa NW 26.9 km/h 26.9 km/h 72 % 0 mm 0.0 W/m2 CLR
07:35 -11.3 °C -13.9 °C 34875.8 hPa WNW 29.8 km/h 29.8 km/h 73 % 0 mm 0.0 W/m2 CLR
07:36 -11.3 °C -13.9 °C 34875.8 hPa NW 29.8 km/h 29.8 km/h 73 % 0 mm 0.0 W/m2 CLR
07:39 -11.3 °C -13.9 °C 34865.6 hPa WNW 29.8 km/h 29.8 km/h 73 % 0 mm 0.0 W/m2 CLR
07:41 -11.3 °C -13.9 °C 34865.6 hPa NW 33.6 km/h 33.6 km/h 73 % 0 mm 0.0 W/m2 CLR
07:46 -11 °C -13.6 °C 34865.6 hPa WNW 29.8 km/h 29.8 km/h 73 % 0 mm 0.0 W/m2 CLR
07:48 -11.3 °C -13.9 °C 34875.8 hPa NW 23.8 km/h 23.8 km/h 73 % 0 mm 0.0 W/m2 CLR
07:53 -11.3 °C -13.9 °C 34865.6 hPa NW 32.8 km/h 32.8 km/h 73 % 0 mm 0.0 W/m2 CLR
07:54 -11.3 °C -13.9 °C 34865.6 hPa NW 32.8 km/h 32.8 km/h 73 % 0 mm 0.0 W/m2 CLR
07:59 -11.3 °C -13.9 °C 34865.6 hPa WNW 33.6 km/h 33.6 km/h 73 % 0 mm 0.0 W/m2 CLR
08:02 -11.3 °C -13.9 °C 34865.6 hPa WNW 35.7 km/h 35.7 km/h 73 % 0 mm 0.0 W/m2 CLR
08:05 -11.3 °C -13.9 °C 34852.1 hPa WNW 33.6 km/h 33.6 km/h 73 % 0 mm 0.0 W/m2 CLR
08:09 -11.3 °C -13.9 °C 34852.1 hPa NW 38.8 km/h 38.8 km/h 73 % 0 mm 0.0 W/m2 CLR
08:12 -11.3 °C -13.9 °C 34865.6 hPa NW 29.8 km/h 29.8 km/h 73 % 0 mm 0.0 W/m2 CLR
08:17 -11.6 °C -14.2 °C 34865.6 hPa NW 23.8 km/h 23.8 km/h 73 % 0 mm 0.0 W/m2 OVC
08:18 -11.6 °C -14.2 °C 34865.6 hPa NW 29.8 km/h 29.8 km/h 73 % 0 mm 0.0 W/m2 OVC
08:20 -11.6 °C -14.2 °C 34865.6 hPa NW 35.7 km/h 35.7 km/h 73 % 0 mm 0.0 W/m2 OVC
08:26 -11.9 °C -14.5 °C 34865.6 hPa NW 33.6 km/h 33.6 km/h 73 % 0 mm 0.0 W/m2 OVC
08:32 -11.9 °C -14.5 °C 34865.6 hPa NW 29.8 km/h 29.8 km/h 73 % 0 mm 5.0 W/m2 OVC
08:34 -11.9 °C -14.5 °C 34865.6 hPa WNW 29.8 km/h 29.8 km/h 73 % 0 mm 5.0 W/m2 OVC
08:39 -11.9 °C -14.6 °C 34865.6 hPa NW 31.1 km/h 31.1 km/h 72 % 0 mm 9.0 W/m2 BKN
08:41 -11.9 °C -14.6 °C 34865.6 hPa WNW 35.7 km/h 35.7 km/h 72 % 0 mm 11.0 W/m2 BKN
08:45 -11.9 °C -14.6 °C 34865.6 hPa NW 29.8 km/h 29.8 km/h 72 % 0 mm 12.0 W/m2 BKN
08:50 -11.9 °C -14.6 °C 34865.6 hPa WNW 29.8 km/h 29.8 km/h 72 % 0 mm 16.0 W/m2 BKN
08:55 -11.9 °C -14.6 °C 34865.6 hPa NW 38.8 km/h 38.8 km/h 72 % 0 mm 19.0 W/m2 BKN
08:58 -11.9 °C -14.7 °C 34865.6 hPa NW 32.8 km/h 32.8 km/h 71 % 0 mm 21.0 W/m2 BKN
09:00 -11.9 °C -14.7 °C 34865.6 hPa WNW 23.8 km/h 23.8 km/h 71 % 0 mm 21.0 W/m2 BKN
09:06 -11.9 °C -14.7 °C 34865.6 hPa West 9 km/h 9 km/h 71 % 0 mm 23.0 W/m2 BKN
09:08 -11.9 °C -14.7 °C 34865.6 hPa West 7.7 km/h 7.7 km/h 71 % 0 mm 23.0 W/m2 BKN
09:13 -11.9 °C -14.6 °C 34865.6 hPa NW 23.8 km/h 23.8 km/h 72 % 0 mm 26.0 W/m2 BKN
09:14 -11.9 °C -14.6 °C 34865.6 hPa West 23.8 km/h 23.8 km/h 72 % 0 mm 26.0 W/m2 BKN
09:18 -12.2 °C -14.8 °C 34865.6 hPa WNW 20.9 km/h 20.9 km/h 73 % 0 mm 28.0 W/m2 BKN
09:19 -12.2 °C -14.8 °C 34865.6 hPa NW 20.9 km/h 20.9 km/h 73 % 0 mm 28.0 W/m2 BKN
09:24 -12.2 °C -14.9 °C 34865.6 hPa WNW 23.8 km/h 23.8 km/h 72 % 0 mm 32.0 W/m2 BKN
09:29 -12.6 °C -15.1 °C 34875.8 hPa WNW 23.8 km/h 23.8 km/h 73 % 0 mm 35.0 W/m2 BKN
09:30 -12.6 °C -15.1 °C 34875.8 hPa West 28.5 km/h 28.5 km/h 73 % 0 mm 35.0 W/m2 BKN
09:35 -12.6 °C -15.2 °C 34875.8 hPa WNW 23.8 km/h 23.8 km/h 72 % 0 mm 35.0 W/m2 BKN
09:36 -12.6 °C -15.2 °C 34875.8 hPa NW 20.9 km/h 20.9 km/h 72 % 0 mm 35.0 W/m2 BKN
09:37 -12.6 °C -15.2 °C 34875.8 hPa WNW 23.8 km/h 23.8 km/h 72 % 0 mm 35.0 W/m2 BKN
09:42 -12.6 °C -15.2 °C 34875.8 hPa WNW 26.9 km/h 26.9 km/h 72 % 0 mm 37.0 W/m2 BKN
09:43 -12.6 °C -15.2 °C 34875.8 hPa WNW 26.9 km/h 26.9 km/h 72 % 0 mm 37.0 W/m2 BKN
09:49 -12.6 °C -15.2 °C 34875.8 hPa West 20.9 km/h 20.9 km/h 72 % 0 mm 39.0 W/m2 BKN
09:54 -12.6 °C -15.2 °C 34865.6 hPa West 26.9 km/h 26.9 km/h 72 % 0 mm 40.0 W/m2 BKN
09:57 -11.9 °C -14.6 °C 34865.6 hPa WNW 29.8 km/h 29.8 km/h 72 % 0 mm 42.0 W/m2 BKN
10:01 -11.6 °C -14.3 °C 34865.6 hPa WNW 31.1 km/h 31.1 km/h 72 % 0 mm 44.0 W/m2 BKN
10:03 -11.6 °C -14.3 °C 34865.6 hPa NW 35.7 km/h 35.7 km/h 72 % 0 mm 46.0 W/m2 BKN
10:08 -11.3 °C -14 °C 34865.6 hPa NW 32.8 km/h 32.8 km/h 72 % 0 mm 49.0 W/m2 SCT
10:13 -11.3 °C -14.1 °C 34865.6 hPa WNW 23.8 km/h 23.8 km/h 71 % 0 mm 56.0 W/m2 SCT
10:17 -11.3 °C -14.1 °C 34875.8 hPa NW 35.7 km/h 35.7 km/h 71 % 0 mm 60.0 W/m2 SCT
10:20 -11.3 °C -14.1 °C 34875.8 hPa WNW 32.8 km/h 32.8 km/h 71 % 0 mm 60.0 W/m2 SCT
10:25 -11 °C -13.9 °C 34875.8 hPa WNW 23.8 km/h 23.8 km/h 70 % 0 mm 62.0 W/m2 SCT
10:26 -11 °C -13.9 °C 34875.8 hPa WNW 23.8 km/h 23.8 km/h 70 % 0 mm 63.0 W/m2 SCT
10:28 -11 °C -13.9 °C 34875.8 hPa WNW 26.9 km/h 26.9 km/h 70 % 0 mm 65.0 W/m2 SCT
10:31 -10.7 °C -13.7 °C 34875.8 hPa WNW 23.8 km/h 23.8 km/h 70 % 0 mm 74.0 W/m2 SCT
10:35 -10.7 °C -13.7 °C 34875.8 hPa West 15 km/h 15 km/h 70 % 0 mm 69.0 W/m2 FEW
10:36 -10.4 °C -13.3 °C 34875.8 hPa West 11.9 km/h 11.9 km/h 70 % 0 mm 77.0 W/m2 FEW
10:40 -10.4 °C -13.3 °C 34875.8 hPa West 12.9 km/h 12.9 km/h 70 % 0 mm 135.0 W/m2 FEW
10:41 -10.4 °C -13.3 °C 34889.3 hPa West 15.6 km/h 15.6 km/h 70 % 0 mm 149.0 W/m2 FEW
10:46 -10.1 °C -13.1 °C 34875.8 hPa West 23.8 km/h 23.8 km/h 70 % 0 mm 211.0 W/m2 CLR
10:57 -9.8 °C -13 °C 34889.3 hPa NW 29.8 km/h 29.8 km/h 68 % 0 mm 301.0 W/m2 CLR
10:59 -9.8 °C -13 °C 34889.3 hPa NNW 17.9 km/h 17.9 km/h 68 % 0 mm 302.0 W/m2 CLR
11:02 -9.8 °C -13.4 °C 34889.3 hPa NNW 29.8 km/h 29.8 km/h 65 % 0 mm 258.0 W/m2 CLR
11:07 -9.4 °C -13.2 °C 34889.3 hPa NW 38.8 km/h 38.8 km/h 64 % 0 mm 250.0 W/m2 CLR
11:10 -9.1 °C -13 °C 34889.3 hPa NNW 38.8 km/h 38.8 km/h 63 % 0 mm 260.0 W/m2 CLR
11:15 -8.5 °C -12.6 °C 34889.3 hPa NW 44.7 km/h 44.7 km/h 62 % 0 mm 316.0 W/m2 CLR
11:19 -8.2 °C -12.4 °C 34889.3 hPa NW 56.6 km/h 56.6 km/h 61 % 0 mm 315.0 W/m2 CLR
11:26 -7.9 °C -12.1 °C 34889.3 hPa NW 38.8 km/h 38.8 km/h 61 % 0 mm 320.0 W/m2 CLR
11:27 -7.9 °C -12.3 °C 34875.8 hPa NW 54.4 km/h 54.4 km/h 60 % 0 mm 323.0 W/m2 CLR
11:32 -7.9 °C -12.3 °C 34875.8 hPa NW 44.7 km/h 44.7 km/h 60 % 0 mm 341.0 W/m2 CLR
11:37 -7.9 °C -12.3 °C 34889.3 hPa North 59.5 km/h 59.5 km/h 60 % 0 mm 427.0 W/m2 CLR
11:38 -7.6 °C -12 °C 34889.3 hPa North 59.5 km/h 59.5 km/h 60 % 0 mm 415.0 W/m2 CLR
11:43 -7.6 °C -12.1 °C 34889.3 hPa NW 68.6 km/h 68.6 km/h 59 % 0 mm 387.0 W/m2 CLR
11:44 -7.6 °C -12.1 °C 34889.3 hPa NNW 68.6 km/h 68.6 km/h 59 % 0 mm 387.0 W/m2 CLR
11:49 -7.6 °C -12.1 °C 34875.8 hPa NNW 59.5 km/h 59.5 km/h 59 % 0 mm 385.0 W/m2 CLR
11:54 -7.6 °C -12.1 °C 34875.8 hPa NNW 88 km/h 88 km/h 59 % 0 mm 369.0 W/m2 CLR
11:55 -7.6 °C -12.1 °C 34875.8 hPa NNW 89.3 km/h 89.3 km/h 59 % 0 mm 359.0 W/m2 CLR
12:00 -7.6 °C -12 °C 34875.8 hPa NNW 69.8 km/h 69.8 km/h 60 % 0 mm 367.0 W/m2 CLR
12:01 -7.6 °C -12.1 °C 34875.8 hPa NNW 68.6 km/h 68.6 km/h 59 % 0 mm 373.0 W/m2 CLR
12:03 -7.6 °C -12.1 °C 34865.6 hPa NW 65.5 km/h 65.5 km/h 59 % 0 mm 369.0 W/m2 CLR
12:07 -7.6 °C -12.1 °C 34865.6 hPa North 74.5 km/h 74.5 km/h 59 % 0 mm 350.0 W/m2 CLR
12:12 -7.6 °C -12 °C 34865.6 hPa NNW 77.4 km/h 77.4 km/h 60 % 0 mm 392.0 W/m2 CLR
12:17 -7.6 °C -12.1 °C 34865.6 hPa NW 62.6 km/h 62.6 km/h 59 % 0 mm 380.0 W/m2 CLR
12:18 -7.6 °C -12.1 °C 34865.6 hPa North 77.4 km/h 77.4 km/h 59 % 0 mm 390.0 W/m2 CLR
12:22 -7.3 °C -11.8 °C 34852.1 hPa NNW 65.5 km/h 65.5 km/h 59 % 0 mm 401.0 W/m2 CLR
12:24 -7.3 °C -11.8 °C 34852.1 hPa NNW 56.6 km/h 56.6 km/h 59 % 0 mm 388.0 W/m2 CLR
12:28 -7.3 °C -11.8 °C 34852.1 hPa NNW 59.5 km/h 59.5 km/h 59 % 0 mm 411.0 W/m2 CLR
12:31 -7.3 °C -11.8 °C 34852.1 hPa North 51.8 km/h 51.8 km/h 59 % 0 mm 396.0 W/m2 CLR
12:34 -7.3 °C -11.8 °C 34852.1 hPa NNW 57 km/h 57 km/h 59 % 0 mm 380.0 W/m2 CLR
12:39 -7.3 °C -12 °C 34852.1 hPa NNW 80.5 km/h 80.5 km/h 58 % 0 mm 404.0 W/m2 CLR
12:40 -7.3 °C -11.8 °C 34852.1 hPa North 83.4 km/h 83.4 km/h 59 % 0 mm 415.0 W/m2 CLR
12:45 -7.3 °C -11.8 °C 34852.1 hPa North 65.5 km/h 65.5 km/h 59 % 0 mm 415.0 W/m2 CLR
12:49 -7.3 °C -11.8 °C 34852.1 hPa NNW 62.6 km/h 62.6 km/h 59 % 0 mm 396.0 W/m2 CLR
12:52 -7 °C -11.7 °C 34852.1 hPa North 65.5 km/h 65.5 km/h 58 % 0 mm 415.0 W/m2 CLR
12:55 -7 °C -11.7 °C 34852.1 hPa NNW 62.1 km/h 62.1 km/h 58 % 0 mm 411.0 W/m2 CLR
13:00 -7 °C -11.7 °C 34852.1 hPa NNW 62.6 km/h 62.6 km/h 58 % 0 mm 418.0 W/m2 CLR
13:01 -7 °C -11.7 °C 34852.1 hPa North 59.5 km/h 59.5 km/h 58 % 0 mm 429.0 W/m2 CLR
13:04 -7 °C -11.7 °C 34841.9 hPa NNW 56.6 km/h 56.6 km/h 58 % 0 mm 399.0 W/m2 CLR
13:07 -7 °C -11.7 °C 34841.9 hPa NNW 53.6 km/h 53.6 km/h 58 % 0 mm 378.0 W/m2 CLR
13:12 -7 °C -11.7 °C 34831.8 hPa NNW 59.5 km/h 59.5 km/h 58 % 0 mm 413.0 W/m2 CLR
13:17 -7 °C -11.7 °C 34818.2 hPa NW 53.6 km/h 53.6 km/h 58 % 0 mm 417.0 W/m2 CLR
13:20 -7 °C -11.8 °C 34818.2 hPa North 56.6 km/h 56.6 km/h 57 % 0 mm 406.0 W/m2 CLR
13:26 -7 °C -11.8 °C 34818.2 hPa NNW 74.5 km/h 74.5 km/h 57 % 0 mm 404.0 W/m2 CLR
13:31 -6.7 °C -11.7 °C 34831.8 hPa North 72.6 km/h 72.6 km/h 56 % 0 mm 429.0 W/m2 CLR
13:37 -6.7 °C -11.7 °C 34831.8 hPa North 77.4 km/h 77.4 km/h 56 % 0 mm 420.0 W/m2 CLR
13:42 -6.7 °C -11.7 °C 34831.8 hPa North 62.6 km/h 62.6 km/h 56 % 0 mm 401.0 W/m2 CLR
13:43 -6.7 °C -11.7 °C 34818.2 hPa North 67.3 km/h 67.3 km/h 56 % 0 mm 401.0 W/m2 CLR
13:48 -6.7 °C -11.7 °C 34818.2 hPa NNW 62.6 km/h 62.6 km/h 56 % 0 mm 387.0 W/m2 CLR
13:54 -6.7 °C -11.7 °C 34808.1 hPa NNW 83.4 km/h 83.4 km/h 56 % 0 mm 385.0 W/m2 CLR
13:58 -6.7 °C -11.7 °C 34808.1 hPa North 80.5 km/h 80.5 km/h 56 % 0 mm 366.0 W/m2 CLR
14:00 -6.7 °C -11.7 °C 34808.1 hPa NNW 71.5 km/h 71.5 km/h 56 % 0 mm 381.0 W/m2 CLR
14:02 -6.7 °C -11.7 °C 34797.9 hPa NW 50.7 km/h 50.7 km/h 56 % 0 mm 380.0 W/m2 CLR
14:06 -6.7 °C -11.8 °C 34797.9 hPa NW 65.5 km/h 65.5 km/h 55 % 0 mm 374.0 W/m2 CLR
14:08 -6.7 °C -11.8 °C 34808.1 hPa NW 56.6 km/h 56.6 km/h 55 % 0 mm 399.0 W/m2 CLR
14:13 -6.7 °C -11.8 °C 34808.1 hPa North 85.5 km/h 85.5 km/h 55 % 0 mm 392.0 W/m2 CLR
14:15 -6.7 °C -11.8 °C 34808.1 hPa North 71.5 km/h 71.5 km/h 55 % 0 mm 388.0 W/m2 CLR
14:20 -6.7 °C -11.8 °C 34797.9 hPa North 89.3 km/h 89.3 km/h 55 % 0 mm 359.0 W/m2 CLR
14:24 -6.7 °C -11.8 °C 34797.9 hPa North 50.7 km/h 50.7 km/h 55 % 0 mm 295.0 W/m2 CLR
14:26 -6.7 °C -11.8 °C 34797.9 hPa NNW 50.7 km/h 50.7 km/h 55 % 0 mm 357.0 W/m2 CLR
14:31 -6.7 °C -11.8 °C 34797.9 hPa NW 56.6 km/h 56.6 km/h 55 % 0 mm 346.0 W/m2 CLR
14:33 -6.7 °C -11.8 °C 34797.9 hPa North 68.6 km/h 68.6 km/h 55 % 0 mm 336.0 W/m2 CLR
14:34 -6.7 °C -11.8 °C 34797.9 hPa NNW 59.5 km/h 59.5 km/h 55 % 0 mm 352.0 W/m2 CLR
14:39 -6.7 °C -11.8 °C 34797.9 hPa NNW 68.6 km/h 68.6 km/h 55 % 0 mm 355.0 W/m2 CLR
14:45 -6.7 °C -12 °C 34797.9 hPa North 65.5 km/h 65.5 km/h 54 % 0 mm 345.0 W/m2 CLR
14:47 -6.7 °C -12 °C 34797.9 hPa NNW 68.6 km/h 68.6 km/h 54 % 0 mm 345.0 W/m2 CLR
14:52 -6.7 °C -12 °C 34797.9 hPa NNW 62.6 km/h 62.6 km/h 54 % 0 mm 339.0 W/m2 CLR
14:53 -6.7 °C -12 °C 34797.9 hPa NNW 62.6 km/h 62.6 km/h 54 % 0 mm 332.0 W/m2 CLR
14:56 -6.7 °C -12 °C 34784.4 hPa North 56.6 km/h 56.6 km/h 54 % 0 mm 332.0 W/m2 CLR
14:58 -6.7 °C -11.8 °C 34784.4 hPa NNW 38.8 km/h 38.8 km/h 55 % 0 mm 323.0 W/m2 CLR
15:03 -6.7 °C -12 °C 34784.4 hPa NW 62.1 km/h 62.1 km/h 54 % 0 mm 316.0 W/m2 CLR
15:04 -6.3 °C -11.7 °C 34784.4 hPa North 62.6 km/h 62.6 km/h 54 % 0 mm 316.0 W/m2 CLR
15:09 -6.7 °C -12 °C 34784.4 hPa NNW 59.5 km/h 59.5 km/h 54 % 0 mm 309.0 W/m2 CLR
15:10 -6.7 °C -12 °C 34784.4 hPa North 69.8 km/h 69.8 km/h 54 % 0 mm 309.0 W/m2 CLR
15:15 -6.7 °C -11.8 °C 34784.4 hPa North 65.5 km/h 65.5 km/h 55 % 0 mm 297.0 W/m2 CLR
15:20 -6.7 °C -11.8 °C 34784.4 hPa North 75.2 km/h 75.2 km/h 55 % 0 mm 288.0 W/m2 CLR
15:22 -6.7 °C -11.8 °C 34797.9 hPa North 64.7 km/h 64.7 km/h 55 % 0 mm 279.0 W/m2 CLR
15:25 -6.7 °C -11.8 °C 34797.9 hPa NW 57 km/h 57 km/h 55 % 0 mm 267.0 W/m2 CLR
15:27 -6.7 °C -11.8 °C 34797.9 hPa NNW 65.5 km/h 65.5 km/h 55 % 0 mm 278.0 W/m2 CLR
15:32 -6.7 °C -11.8 °C 34797.9 hPa NNE 56.6 km/h 56.6 km/h 55 % 0 mm 264.0 W/m2 CLR
15:33 -6.7 °C -11.8 °C 34797.9 hPa NNE 56.6 km/h 56.6 km/h 55 % 0 mm 267.0 W/m2 CLR
15:38 -6.7 °C -11.8 °C 34797.9 hPa NNW 59.5 km/h 59.5 km/h 55 % 0 mm 251.0 W/m2 CLR
15:39 -7 °C -12.1 °C 34797.9 hPa NNW 50.7 km/h 50.7 km/h 55 % 0 mm 250.0 W/m2 CLR
15:41 -7 °C -12.1 °C 34797.9 hPa North 56.6 km/h 56.6 km/h 55 % 0 mm 243.0 W/m2 CLR
15:44 -7 °C -12.1 °C 34797.9 hPa NNW 68.6 km/h 68.6 km/h 55 % 0 mm 218.0 W/m2 CLR
15:48 -7 °C -12 °C 34797.9 hPa North 62.6 km/h 62.6 km/h 56 % 0 mm 232.0 W/m2 CLR
15:50 -7 °C -12 °C 34797.9 hPa NNW 77.4 km/h 77.4 km/h 56 % 0 mm 230.0 W/m2 CLR
15:55 -7 °C -12 °C 34797.9 hPa NNW 53.6 km/h 53.6 km/h 56 % 0 mm 209.0 W/m2 CLR
15:56 -7 °C -12 °C 34797.9 hPa North 62.1 km/h 62.1 km/h 56 % 0 mm 209.0 W/m2 CLR
16:01 -7 °C -12 °C 34784.4 hPa NW 49.2 km/h 49.2 km/h 56 % 0 mm 202.0 W/m2 CLR
16:04 -7 °C -12 °C 34797.9 hPa NW 53.6 km/h 53.6 km/h 56 % 0 mm 192.0 W/m2 CLR
16:09 -7 °C -12 °C 34784.4 hPa NNW 68.6 km/h 68.6 km/h 56 % 0 mm 179.0 W/m2 CLR
16:14 -7.3 °C -12.3 °C 34784.4 hPa NNW 67.3 km/h 67.3 km/h 56 % 0 mm 165.0 W/m2 CLR
16:15 -7.3 °C -12.3 °C 34784.4 hPa NW 74.5 km/h 74.5 km/h 56 % 0 mm 160.0 W/m2 CLR
16:19 -7.3 °C -12.3 °C 34784.4 hPa NW 62.1 km/h 62.1 km/h 56 % 0 mm 151.0 W/m2 CLR
16:22 -7.3 °C -12.3 °C 34784.4 hPa NW 83.4 km/h 83.4 km/h 56 % 0 mm 142.0 W/m2 CLR
16:26 -7.3 °C -12.1 °C 34784.4 hPa NNW 65.5 km/h 65.5 km/h 57 % 0 mm 135.0 W/m2 CLR
16:31 -7.3 °C -12.1 °C 34797.9 hPa NNW 68.6 km/h 68.6 km/h 57 % 0 mm 123.0 W/m2 CLR
16:35 -7.3 °C -12.1 °C 34797.9 hPa NNW 68.6 km/h 68.6 km/h 57 % 0 mm 113.0 W/m2 CLR
16:38 -7.3 °C -12.1 °C 34797.9 hPa NW 44.7 km/h 44.7 km/h 57 % 0 mm 107.0 W/m2 CLR
16:42 -7.6 °C -12.4 °C 34797.9 hPa North 65.5 km/h 65.5 km/h 57 % 0 mm 93.0 W/m2 CLR
16:44 -7.6 °C -12.4 °C 34797.9 hPa NNW 74.5 km/h 74.5 km/h 57 % 0 mm 84.0 W/m2 CLR
16:47 -7.6 °C -12.3 °C 34797.9 hPa North 59.5 km/h 59.5 km/h 58 % 0 mm 77.0 W/m2 FEW
16:52 -7.6 °C -12.3 °C 34797.9 hPa NW 65.5 km/h 65.5 km/h 58 % 0 mm 65.0 W/m2 SCT
16:53 -7.6 °C -12.3 °C 34797.9 hPa NW 65.5 km/h 65.5 km/h 58 % 0 mm 63.0 W/m2 SCT
16:54 -7.6 °C -12.3 °C 34797.9 hPa NW 59.5 km/h 59.5 km/h 58 % 0 mm 62.0 W/m2 SCT
16:59 -7.6 °C -12.3 °C 34797.9 hPa NNW 50.7 km/h 50.7 km/h 58 % 0 mm 54.0 W/m2 SCT
17:00 -7.6 °C -12.3 °C 34797.9 hPa NW 50.7 km/h 50.7 km/h 58 % 0 mm 53.0 W/m2 SCT
17:05 -7.9 °C -12.4 °C 34797.9 hPa NW 59.5 km/h 59.5 km/h 59 % 0 mm 42.0 W/m2 SCT
17:10 -7.9 °C -12.4 °C 34797.9 hPa NW 47.6 km/h 47.6 km/h 59 % 0 mm 33.0 W/m2 BKN
17:13 -7.9 °C -12.4 °C 34784.4 hPa NW 50.7 km/h 50.7 km/h 59 % 0 mm 30.0 W/m2 BKN
17:16 -7.9 °C -12.4 °C 34784.4 hPa NNW 53.6 km/h 53.6 km/h 59 % 0 mm 26.0 W/m2 BKN
17:21 -7.9 °C -12.3 °C 34797.9 hPa NW 50.7 km/h 50.7 km/h 60 % 0 mm 21.0 W/m2 BKN
17:23 -7.9 °C -12.3 °C 34797.9 hPa North 38.8 km/h 38.8 km/h 60 % 0 mm 18.0 W/m2 BKN
17:26 -7.9 °C -12.1 °C 34797.9 hPa NW 51.8 km/h 51.8 km/h 61 % 0 mm 16.0 W/m2 BKN
17:30 -7.9 °C -12.1 °C 34797.9 hPa NNW 47.6 km/h 47.6 km/h 61 % 0 mm 12.0 W/m2 BKN
17:32 -7.9 °C -12.1 °C 34797.9 hPa NW 59.5 km/h 59.5 km/h 61 % 0 mm 12.0 W/m2 BKN
17:36 -8.2 °C -12.4 °C 34797.9 hPa NW 57 km/h 57 km/h 61 % 0 mm 9.0 W/m2 BKN
17:37 -8.2 °C -12.4 °C 34797.9 hPa NW 56.6 km/h 56.6 km/h 61 % 0 mm 7.0 W/m2 BKN
17:42 -8.2 °C -12.3 °C 34797.9 hPa NNW 44.7 km/h 44.7 km/h 62 % 0 mm 5.0 W/m2 OVC
17:43 -8.2 °C -12.3 °C 34797.9 hPa NNW 59.5 km/h 59.5 km/h 62 % 0 mm 5.0 W/m2 OVC
17:48 -8.2 °C -12.3 °C 34784.4 hPa NW 51.8 km/h 51.8 km/h 62 % 0 mm 5.0 W/m2 OVC
17:49 -8.2 °C -12.3 °C 34784.4 hPa NW 59.5 km/h 59.5 km/h 62 % 0 mm 5.0 W/m2 OVC
17:54 -8.2 °C -12.3 °C 34774.2 hPa NW 38.8 km/h 38.8 km/h 62 % 0 mm 5.0 W/m2 CLR
17:56 -8.2 °C -12.3 °C 34774.2 hPa NW 59.5 km/h 59.5 km/h 62 % 0 mm 5.0 W/m2 CLR
17:58 -8.2 °C -12.2 °C 34774.2 hPa NW 56.6 km/h 56.6 km/h 63 % 0 mm 0.0 W/m2 CLR
18:03 -8.2 °C -12.2 °C 34784.4 hPa NW 50.7 km/h 50.7 km/h 63 % 0 mm 0.0 W/m2 CLR
18:04 -8.2 °C -12.2 °C 34784.4 hPa WNW 50.7 km/h 50.7 km/h 63 % 0 mm 0.0 W/m2 CLR
18:09 -8.2 °C -12.2 °C 34784.4 hPa NW 59.5 km/h 59.5 km/h 63 % 0 mm 0.0 W/m2 CLR
18:14 -8.5 °C -12.4 °C 34784.4 hPa NW 53.6 km/h 53.6 km/h 63 % 0 mm 0.0 W/m2 CLR
18:19 -8.5 °C -12.4 °C 34784.4 hPa NW 41.7 km/h 41.7 km/h 63 % 0 mm 0.0 W/m2 CLR
18:21 -8.5 °C -12.3 °C 34784.4 hPa NNW 47.6 km/h 47.6 km/h 64 % 0 mm 0.0 W/m2 CLR
18:26 -8.5 °C -12.3 °C 34784.4 hPa NW 62.6 km/h 62.6 km/h 64 % 0 mm 0.0 W/m2 CLR
18:27 -8.5 °C -12.3 °C 34784.4 hPa NNW 62.6 km/h 62.6 km/h 64 % 0 mm 0.0 W/m2 CLR
18:28 -8.5 °C -12.3 °C 34784.4 hPa NW 56.6 km/h 56.6 km/h 64 % 0 mm 0.0 W/m2 CLR
18:33 -8.5 °C -12.3 °C 34784.4 hPa NW 47.6 km/h 47.6 km/h 64 % 0 mm 0.0 W/m2 CLR
18:38 -8.5 °C -12.3 °C 34784.4 hPa NNW 50.7 km/h 50.7 km/h 64 % 0 mm 0.0 W/m2 CLR
18:39 -8.5 °C -12.3 °C 34784.4 hPa NNW 44.7 km/h 44.7 km/h 64 % 0 mm 0.0 W/m2 CLR
18:45 -8.5 °C -12.2 °C 34784.4 hPa WNW 32.8 km/h 32.8 km/h 65 % 0 mm 0.0 W/m2 CLR
18:50 -8.8 °C -12.5 °C 34784.4 hPa NW 31.1 km/h 31.1 km/h 65 % 0 mm 0.0 W/m2 CLR
18:52 -8.8 °C -12.5 °C 34784.4 hPa NW 38.8 km/h 38.8 km/h 65 % 0 mm 0.0 W/m2 CLR
18:58 -8.8 °C -12.5 °C 34784.4 hPa NW 29.8 km/h 29.8 km/h 65 % 0 mm 0.0 W/m2 CLR
19:00 -8.8 °C -12.5 °C 34784.4 hPa WNW 26.9 km/h 26.9 km/h 65 % 0 mm 0.0 W/m2 CLR
19:05 -8.8 °C -12.3 °C 34784.4 hPa NW 29.8 km/h 29.8 km/h 66 % 0 mm 0.0 W/m2 CLR
19:09 -8.8 °C -12.3 °C 34797.9 hPa NW 29.8 km/h 29.8 km/h 66 % 0 mm 0.0 W/m2 CLR
19:10 -8.8 °C -12.3 °C 34784.4 hPa NW 29.8 km/h 29.8 km/h 66 % 0 mm 0.0 W/m2 CLR
19:15 -9.1 °C -12.7 °C 34797.9 hPa NNW 35.7 km/h 35.7 km/h 66 % 0 mm 0.0 W/m2 CLR
19:20 -9.1 °C -12.7 °C 34784.4 hPa NNW 41.4 km/h 41.4 km/h 66 % 0 mm 0.0 W/m2 CLR
19:22 -9.1 °C -12.6 °C 34797.9 hPa NW 38.8 km/h 38.8 km/h 67 % 0 mm 0.0 W/m2 CLR
19:26 -9.1 °C -12.6 °C 34797.9 hPa NW 47.6 km/h 47.6 km/h 67 % 0 mm 0.0 W/m2 CLR
19:28 -9.1 °C -12.6 °C 34797.9 hPa NNW 44.7 km/h 44.7 km/h 67 % 0 mm 0.0 W/m2 CLR
19:31 -9.1 °C -12.6 °C 34797.9 hPa NNW 38.8 km/h 38.8 km/h 67 % 0 mm 0.0 W/m2 CLR
19:36 -8.8 °C -12.2 °C 34797.9 hPa NNW 38.8 km/h 38.8 km/h 67 % 0 mm 0.0 W/m2 CLR
19:37 -8.8 °C -12.2 °C 34797.9 hPa NNW 54.4 km/h 54.4 km/h 67 % 0 mm 0.0 W/m2 CLR
19:42 -8.8 °C -12.2 °C 34797.9 hPa NW 53.6 km/h 53.6 km/h 67 % 0 mm 0.0 W/m2 CLR
19:44 -8.8 °C -12.2 °C 34797.9 hPa North 50.7 km/h 50.7 km/h 67 % 0 mm 0.0 W/m2 CLR
19:49 -8.8 °C -12.2 °C 34797.9 hPa NNW 50.7 km/h 50.7 km/h 67 % 0 mm 0.0 W/m2 CLR
19:53 -8.8 °C -12.2 °C 34797.9 hPa NW 44.1 km/h 44.1 km/h 67 % 0 mm 0.0 W/m2 CLR
19:56 -9.1 °C -12.6 °C 34797.9 hPa NNW 35.7 km/h 35.7 km/h 67 % 0 mm 0.0 W/m2 CLR
19:59 -9.1 °C -12.6 °C 34808.1 hPa NNW 29.8 km/h 29.8 km/h 67 % 0 mm 0.0 W/m2 CLR
20:02 -9.1 °C -12.4 °C 34797.9 hPa NW 35.7 km/h 35.7 km/h 68 % 0 mm 0.0 W/m2 CLR
20:07 -9.1 °C -12.4 °C 34808.1 hPa NW 35.7 km/h 35.7 km/h 68 % 0 mm 0.0 W/m2 CLR
20:13 -9.1 °C -12.6 °C 34808.1 hPa NNW 33.6 km/h 33.6 km/h 67 % 0 mm 0.0 W/m2 CLR
20:18 -9.1 °C -12.4 °C 34808.1 hPa NW 33.6 km/h 33.6 km/h 68 % 0 mm 0.0 W/m2 CLR
20:20 -9.1 °C -12.4 °C 34808.1 hPa NW 35.7 km/h 35.7 km/h 68 % 0 mm 0.0 W/m2 CLR
20:23 -9.1 °C -12.4 °C 34808.1 hPa NW 29.8 km/h 29.8 km/h 68 % 0 mm 0.0 W/m2 CLR
20:25 -9.1 °C -12.4 °C 34808.1 hPa WNW 29.8 km/h 29.8 km/h 68 % 0 mm 0.0 W/m2 CLR
20:28 -9.1 °C -12.4 °C 34808.1 hPa NNW 41.4 km/h 41.4 km/h 68 % 0 mm 0.0 W/m2 CLR
20:30 -9.1 °C -12.4 °C 34808.1 hPa WNW 35.7 km/h 35.7 km/h 68 % 0 mm 0.0 W/m2 CLR
20:36 -9.1 °C -12.4 °C 34808.1 hPa WNW 29.8 km/h 29.8 km/h 68 % 0 mm 0.0 W/m2 CLR
20:41 -9.4 °C -12.7 °C 34808.1 hPa WNW 26.9 km/h 26.9 km/h 68 % 0 mm 0.0 W/m2 CLR
20:51 -9.4 °C -12.8 °C 34808.1 hPa NW 29.8 km/h 29.8 km/h 67 % 0 mm 0.0 W/m2 CLR
20:56 -9.4 °C -12.8 °C 34808.1 hPa NNW 23.8 km/h 23.8 km/h 67 % 0 mm 0.0 W/m2 CLR
21:01 -9.4 °C -12.8 °C 34808.1 hPa NW 23.8 km/h 23.8 km/h 67 % 0 mm 0.0 W/m2 CLR
21:06 -9.4 °C -12.8 °C 34808.1 hPa WNW 23.8 km/h 23.8 km/h 67 % 0 mm 0.0 W/m2 CLR
21:07 -9.4 °C -12.8 °C 34808.1 hPa NW 23.8 km/h 23.8 km/h 67 % 0 mm 0.0 W/m2 CLR
21:17 -9.8 °C -13 °C 34808.1 hPa WNW 23.8 km/h 23.8 km/h 68 % 0 mm 0.0 W/m2 CLR
21:18 -9.8 °C -13 °C 34808.1 hPa NW 20.9 km/h 20.9 km/h 68 % 0 mm 0.0 W/m2 CLR
21:28 -10.4 °C -13.6 °C 34818.2 hPa WNW 15.6 km/h 15.6 km/h 68 % 0 mm 0.0 W/m2 CLR
21:30 -10.4 °C -13.6 °C 34818.2 hPa WNW 11.9 km/h 11.9 km/h 68 % 0 mm 0.0 W/m2 CLR
21:34 -10.7 °C -13.9 °C 34808.1 hPa NW 20.8 km/h 20.8 km/h 68 % 0 mm 0.0 W/m2 CLR
21:38 -10.7 °C -13.9 °C 34808.1 hPa WNW 6 km/h 6 km/h 68 % 0 mm 0.0 W/m2 CLR
21:39 -11 °C -14.2 °C 34808.1 hPa WNW 15.6 km/h 15.6 km/h 68 % 0 mm 0.0 W/m2 CLR
21:44 -11 °C -14.2 °C 34808.1 hPa WNW 6 km/h 6 km/h 68 % 0 mm 0.0 W/m2 CLR
21:45 -11 °C -14.2 °C 34808.1 hPa WNW 6 km/h   68 % 0 mm 0.0 W/m2 CLR
21:50 -11.3 °C -14.5 °C 34808.1 hPa Calm     68 % 0 mm 0.0 W/m2 CLR
21:54 -11.6 °C -14.7 °C 34797.9 hPa Calm     69 % 0 mm 0.0 W/m2 CLR
21:55 -11.6 °C -14.7 °C 34797.9 hPa Calm     69 % 0 mm 0.0 W/m2 CLR
22:00 -11.6 °C -14.6 °C 34797.9 hPa Calm     70 % 0 mm 0.0 W/m2 CLR
22:01 -11.6 °C -14.6 °C 34797.9 hPa Calm     70 % 0 mm 0.0 W/m2 CLR
22:06 -11.9 °C -14.7 °C 34797.9 hPa Calm     71 % 0 mm 0.0 W/m2 CLR
22:11 -12.2 °C -14.9 °C 34797.9 hPa WNW 9 km/h 9 km/h 72 % 0 mm 0.0 W/m2 CLR
22:16 -12.6 °C -15.2 °C 34797.9 hPa West 11.9 km/h 11.9 km/h 72 % 0 mm 0.0 W/m2 CLR
22:17 -12.6 °C -15.2 °C 34784.4 hPa West 11.9 km/h 11.9 km/h 72 % 0 mm 0.0 W/m2 CLR
22:23 -12.6 °C -15.2 °C 34797.9 hPa WNW 29.8 km/h 29.8 km/h 72 % 0 mm 0.0 W/m2 CLR
22:24 -12.6 °C -15.3 °C 34797.9 hPa WNW 29.8 km/h 29.8 km/h 71 % 0 mm 0.0 W/m2 CLR
22:37 -12.6 °C -15.5 °C 34797.9 hPa WNW 29.8 km/h 29.8 km/h 69 % 0 mm 0.0 W/m2 CLR
22:40 -12.6 °C -15.7 °C 34797.9 hPa WNW 20.9 km/h 20.9 km/h 68 % 0 mm 0.0 W/m2 CLR
22:41 -12.6 °C -15.7 °C 34784.4 hPa WNW 29.8 km/h 29.8 km/h 68 % 0 mm 0.0 W/m2 CLR
22:46 -12.2 °C -15.4 °C 34797.9 hPa NW 35.7 km/h 35.7 km/h 68 % 0 mm 0.0 W/m2 CLR
22:47 -12.2 °C -15.4 °C 34797.9 hPa WNW 35.7 km/h 35.7 km/h 68 % 0 mm 0.0 W/m2 CLR
22:49 -11.9 °C -15.1 °C 34784.4 hPa WNW 29.8 km/h 29.8 km/h 68 % 0 mm 0.0 W/m2 CLR
22:52 -11.3 °C -14.5 °C 34797.9 hPa WNW 29.8 km/h 29.8 km/h 68 % 0 mm 0.0 W/m2 CLR
22:58 -10.7 °C -13.9 °C 34797.9 hPa West 36.2 km/h 36.2 km/h 68 % 0 mm 0.0 W/m2 CLR
22:59 -10.7 °C -13.9 °C 34797.9 hPa WNW 41.7 km/h 41.7 km/h 68 % 0 mm 0.0 W/m2 CLR
23:03 -10.7 °C -13.9 °C 34784.4 hPa WNW 26.9 km/h 26.9 km/h 68 % 0 mm 0.0 W/m2 CLR
23:07 -10.7 °C -13.9 °C 34797.9 hPa NW 28.5 km/h 28.5 km/h 68 % 0 mm 0.0 W/m2 CLR
23:08 -10.7 °C -13.9 °C 34797.9 hPa WNW 26.9 km/h 26.9 km/h 68 % 0 mm 0.0 W/m2 CLR
23:13 -10.7 °C -13.9 °C 34797.9 hPa NW 23.8 km/h 23.8 km/h 68 % 0 mm 0.0 W/m2 CLR
23:14 -10.7 °C -13.9 °C 34797.9 hPa WNW 29.8 km/h 29.8 km/h 68 % 0 mm 0.0 W/m2 CLR
23:16 -10.4 °C -13.6 °C 34797.9 hPa NW 26.9 km/h 26.9 km/h 68 % 0 mm 0.0 W/m2 CLR
23:21 -10.4 °C -13.6 °C 34797.9 hPa NW 32.8 km/h 32.8 km/h 68 % 0 mm 0.0 W/m2 CLR
23:23 -10.4 °C -13.6 °C 34797.9 hPa WNW 29.8 km/h 29.8 km/h 68 % 0 mm 0.0 W/m2 CLR
23:26 -10.4 °C -13.6 °C 34797.9 hPa WNW 23.8 km/h 23.8 km/h 68 % 0 mm 0.0 W/m2 CLR
23:30 -10.4 °C -13.6 °C 34784.4 hPa NW 29.8 km/h 29.8 km/h 68 % 0 mm 0.0 W/m2 CLR
23:32 -10.4 °C -13.6 °C 34797.9 hPa WNW 33.6 km/h 33.6 km/h 68 % 0 mm 0.0 W/m2 CLR
23:36 -10.4 °C -13.7 °C 34797.9 hPa NW 29.8 km/h 29.8 km/h 67 % 0 mm 0.0 W/m2 CLR
23:39 -10.4 °C -13.7 °C 34797.9 hPa WNW 29.8 km/h 29.8 km/h 67 % 0 mm 0.0 W/m2 CLR
23:41 -10.4 °C -13.7 °C 34797.9 hPa NW 26.9 km/h 26.9 km/h 67 % 0 mm 0.0 W/m2 CLR
23:46 -10.4 °C -13.7 °C 34797.9 hPa WNW 23.8 km/h 23.8 km/h 67 % 0 mm 0.0 W/m2 CLR
23:51 -10.4 °C -13.7 °C 34797.9 hPa WNW 23.8 km/h 23.8 km/h 67 % 0 mm 0.0 W/m2 CLR
23:57 -10.1 °C -13.3 °C 34797.9 hPa WNW 26.9 km/h 26.9 km/h 68 % 0 mm 0.0 W/m2 CLR
Lo Temps de Massalio
Compliments of Weather Underground - 1.5 mb